Time;durP1;ratioP1;P1;durP2;ratioP2;P2;SDS_P1;SDS_P2;PMS_P1;PMS_P2;Temp;Humidity;BMP_temperature;BMP_pressure;BME280_temperature;BME280_humidity;BME280_pressure;Samples;Min_cycle;Max_cycle;Signal;HPM_P1;HPM_P2
2023/04/05 05:15:13;;;;;;;;;14.50;8.00;;;;;17.59;42.38;101909.19;5044533;27;46004;-77
2023/04/05 05:17:39;;;;;;;;;10.00;9.75;;;;;18.20;43.02;101918.66;5042978;28;45824;-78
2023/04/05 05:20:09;;;;;;;;;12.75;10.25;;;;;19.06;43.33;101913.69;5037066;28;46051;-75
2023/04/05 05:22:35;;;;;;;;;9.50;8.50;;;;;19.94;43.43;101894.75;5045777;28;45290;-74
2023/04/05 05:25:00;;;;;;;;;11.75;8.75;;;;;20.93;43.32;101911.41;5041359;28;46608;-76
2023/04/05 05:27:27;;;;;;;;;10.00;9.25;;;;;21.64;42.33;101906.63;5040213;28;45639;-76
2023/04/05 05:29:52;;;;;;;;;11.75;10.50;;;;;22.41;41.82;101914.66;5055712;28;45400;-77
2023/04/05 05:32:17;;;;;;;;;8.00;8.00;;;;;22.98;41.54;101916.13;5055366;28;45505;-76
2023/04/05 05:34:43;;;;;;;;;11.50;11.50;;;;;23.51;41.01;101928.53;5051902;27;46058;-75
2023/04/05 05:37:11;;;;;;;;;9.50;9.00;;;;;23.92;40.45;101912.16;5048550;28;45456;-76
2023/04/05 05:39:36;;;;;;;;;9.25;7.25;;;;;24.31;40.21;101924.88;5052380;27;45580;-75
2023/04/05 05:42:02;;;;;;;;;12.00;11.25;;;;;24.64;40.16;101918.25;5057307;27;45410;-75
2023/04/05 05:44:31;;;;;;;;;12.75;10.75;;;;;24.91;39.32;101925.63;5047046;28;45434;-76
2023/04/05 05:46:57;;;;;;;;;10.00;10.00;;;;;25.15;38.98;101921.50;5049593;28;45514;-76
2023/04/05 05:49:22;;;;;;;;;11.00;9.00;;;;;25.34;38.69;101914.25;5049244;28;45519;-76
2023/04/05 05:51:48;;;;;;;;;8.67;8.33;;;;;25.54;38.40;101917.66;5049360;28;45575;-79
2023/04/05 05:54:13;;;;;;;;;9.00;9.00;;;;;25.70;38.20;101922.47;5048385;28;45847;-78
2023/04/05 05:56:39;;;;;;;;;10.00;8.67;;;;;25.85;38.10;101925.50;5049442;28;45486;-78
2023/04/05 05:59:05;;;;;;;;;11.33;10.67;;;;;25.98;37.58;101914.22;5042532;28;45445;-76
2023/04/05 06:01:33;;;;;;;;;10.00;9.67;;;;;26.13;37.63;101919.09;5049622;28;45425;-76
2023/04/05 06:03:58;;;;;;;;;9.00;9.00;;;;;26.26;36.91;101922.28;5048400;28;47057;-76
2023/04/05 06:06:23;;;;;;;;;17.00;11.67;;;;;26.35;36.67;101919.63;5048697;28;45483;-77
2023/04/05 06:08:50;;;;;;;;;11.00;9.00;;;;;26.51;36.75;101924.31;5040647;28;48835;-76
2023/04/05 06:11:17;;;;;;;;;9.00;9.00;;;;;26.63;37.01;101925.75;5047717;28;45731;-76
2023/04/05 06:13:42;;;;;;;;;12.67;8.33;;;;;26.74;36.22;101929.22;5048028;28;45987;-73
2023/04/05 06:16:07;;;;;;;;;7.33;7.33;;;;;26.82;35.91;101924.66;5036259;28;50704;-74
2023/04/05 06:18:33;;;;;;;;;9.67;8.67;;;;;26.92;35.96;101926.41;5048260;28;45518;-76
2023/04/05 06:20:58;;;;;;;;;9.67;9.33;;;;;27.03;35.68;101928.91;5049151;28;45470;-76
2023/04/05 06:23:23;;;;;;;;;10.00;9.00;;;;;27.10;35.81;101931.81;5053824;28;59728;-76
2023/04/05 06:25:48;;;;;;;;;11.33;8.33;;;;;27.19;36.11;101935.44;5031661;28;48246;-76
2023/04/05 06:28:14;;;;;;;;;9.33;9.33;;;;;27.27;35.64;101942.78;5028589;28;45624;-75
2023/04/05 06:30:39;;;;;;;;;9.33;9.00;;;;;27.34;35.36;101941.94;5029428;28;45507;-74
2023/04/05 06:33:05;;;;;;;;;9.33;9.33;;;;;27.41;35.65;101944.84;5024573;28;45374;-74
2023/04/05 06:35:31;;;;;;;;;7.67;7.67;;;;;27.48;35.39;101945.91;5032757;28;45471;-75
2023/04/05 06:37:56;;;;;;;;;7.33;7.33;;;;;27.57;35.22;101941.31;5032506;28;45504;-73
2023/04/05 06:40:21;;;;;;;;;8.00;8.00;;;;;27.64;34.79;101943.41;5026319;28;46150;-73
2023/04/05 06:42:47;;;;;;;;;10.00;8.33;;;;;27.71;35.08;101948.03;5033097;28;45452;-77
2023/04/05 06:45:12;;;;;;;;;8.67;8.00;;;;;27.70;34.93;101940.00;5030888;28;45389;-77
2023/04/05 06:47:39;;;;;;;;;10.33;10.33;;;;;27.73;34.89;101951.44;5027814;28;45503;-76
2023/04/05 06:50:07;;;;;;;;;9.00;9.00;;;;;27.72;34.26;101955.16;5025736;28;45497;-76
2023/04/05 06:52:33;;;;;;;;;5.00;5.00;;;;;27.62;34.27;101938.97;5027084;28;47120;-76
2023/04/05 06:54:59;;;;;;;;;11.33;9.33;;;;;27.62;34.04;101955.34;5024073;28;45535;-76
2023/04/05 06:57:25;;;;;;;;;9.00;9.00;;;;;27.60;33.69;101951.94;5033776;28;45429;-75
2023/04/05 06:59:51;;;;;;;;;13.33;11.00;;;;;27.60;33.67;101951.06;5033355;28;45542;-75
2023/04/05 07:02:17;;;;;;;;;10.67;10.67;;;;;27.60;33.71;101961.97;5027983;28;46159;-75
2023/04/05 07:04:43;;;;;;;;;10.00;10.00;;;;;27.62;34.22;101968.13;5033479;28;45400;-74
2023/04/05 07:07:08;;;;;;;;;10.67;9.33;;;;;27.63;33.64;101969.84;5028267;28;45475;-74
2023/04/05 07:09:35;;;;;;;;;11.00;10.33;;;;;27.63;34.07;101958.94;5033889;28;45486;-75
2023/04/05 07:12:03;;;;;;;;;3.00;3.00;;;;;27.64;34.04;101954.31;5033551;28;46358;-74
2023/04/05 07:14:29;;;;;;;;;8.33;7.33;;;;;27.67;33.27;101959.44;5030340;28;45428;-74
2023/04/05 07:16:55;;;;;;;;;11.67;9.33;;;;;27.65;34.06;101958.75;5026820;28;45661;-74
2023/04/05 07:19:21;;;;;;;;;10.00;9.67;;;;;27.71;33.86;101961.66;5030542;28;45654;-74
2023/04/05 07:21:47;;;;;;;;;7.00;7.00;;;;;27.74;33.24;101955.88;5028377;28;45515;-75
2023/04/05 07:24:13;;;;;;;;;10.00;9.00;;;;;27.77;33.57;101956.53;5033361;28;45614;-74
2023/04/05 07:26:38;;;;;;;;;8.67;8.67;;;;;27.81;33.18;101964.25;5028067;28;48470;-75
2023/04/05 07:29:05;;;;;;;;;8.67;8.67;;;;;27.83;33.59;101967.63;5023608;28;45685;-74
2023/04/05 07:31:30;;;;;;;;;9.33;8.33;;;;;27.83;33.58;101961.34;5005107;28;45761;-74
2023/04/05 07:33:57;;;;;;;;;9.00;7.33;;;;;27.83;33.08;101959.47;5022027;28;45510;-75
2023/04/05 07:36:22;;;;;;;;;8.33;8.33;;;;;27.85;33.56;101956.56;5024425;28;45563;-75
2023/04/05 07:38:48;;;;;;;;;9.67;8.00;;;;;27.90;33.56;101969.72;5024937;28;45563;-76
2023/04/05 07:41:15;;;;;;;;;10.33;9.67;;;;;27.90;33.50;101954.19;5034540;28;46100;-76
2023/04/05 07:43:41;;;;;;;;;7.33;7.33;;;;;27.95;33.02;101957.25;5031070;28;45490;-75
2023/04/05 07:46:06;;;;;;;;;8.33;8.33;;;;;27.99;33.59;101966.81;5017791;28;45644;-74
2023/04/05 07:48:31;;;;;;;;;11.00;8.67;;;;;28.04;33.55;101962.72;5021675;28;45337;-73
2023/04/05 07:51:02;;;;;;;;;8.00;8.00;;;;;28.09;33.42;101957.59;5033197;28;46510;-72
2023/04/05 07:53:28;;;;;;;;;9.67;8.33;;;;;28.10;32.87;101949.25;5031711;28;45948;-73
2023/04/05 07:55:53;;;;;;;;;8.67;7.00;;;;;28.12;33.13;101954.56;5033908;28;45404;-72
2023/04/05 07:58:18;;;;;;;;;7.33;7.00;;;;;28.11;32.67;101945.50;5032909;28;45458;-75
2023/04/05 08:00:43;;;;;;;;;7.33;7.33;;;;;28.14;33.06;101947.91;5041920;28;60628;-75
2023/04/05 08:03:09;;;;;;;;;7.67;7.67;;;;;28.15;32.60;101941.41;5031030;28;55500;-75
2023/04/05 08:05:34;;;;;;;;;9.00;9.00;;;;;28.17;33.10;101954.88;5027842;28;45356;-75
2023/04/05 08:08:00;;;;;;;;;11.00;9.00;;;;;28.20;32.83;101940.03;5031557;28;45423;-75
2023/04/05 08:10:26;;;;;;;;;8.00;7.33;;;;;28.22;33.15;101947.03;5033108;28;46112;-74
2023/04/05 08:12:51;;;;;;;;;8.00;7.00;;;;;28.24;32.42;101942.28;5032811;28;45410;-75
2023/04/05 08:15:16;;;;;;;;;9.00;8.00;;;;;28.22;32.96;101929.78;5031308;28;45357;-74
2023/04/05 08:17:42;;;;;;;;;8.67;8.67;;;;;28.28;33.07;101940.03;5030428;28;47648;-75
2023/04/05 08:20:08;;;;;;;;;9.00;8.67;;;;;28.31;32.57;101941.59;5032353;28;46989;-73
2023/04/05 08:22:33;;;;;;;;;9.00;8.00;;;;;28.33;32.86;101940.41;5031550;28;45962;-75
2023/04/05 08:24:58;;;;;;;;;8.00;8.00;;;;;28.35;32.64;101942.94;5021850;28;45424;-76
2023/04/05 08:27:23;;;;;;;;;9.33;7.67;;;;;28.36;32.76;101945.50;5030910;28;54093;-77
2023/04/05 08:29:49;;;;;;;;;9.00;7.00;;;;;28.39;32.53;101953.34;5029271;28;56377;-76
2023/04/05 08:32:14;;;;;;;;;8.00;8.00;;;;;28.42;32.27;101954.88;5032224;28;45785;-75
2023/04/05 08:34:40;;;;;;;;;8.00;8.00;;;;;28.45;32.81;101945.50;5032494;28;45673;-76
2023/04/05 08:37:05;;;;;;;;;6.67;6.67;;;;;28.50;32.86;101943.09;5031936;28;45414;-76
2023/04/05 08:39:33;;;;;;;;;7.67;7.67;;;;;28.49;32.22;101939.50;5032673;28;46184;-75
2023/04/05 08:42:16;;;;;;;;;6.67;6.67;;;;;28.55;31.90;101940.69;5032249;28;45462;-75
2023/04/05 08:44:44;;;;;;;;;6.00;6.00;;;;;28.56;31.87;101939.66;5028404;28;45468;-76
2023/04/05 08:47:14;;;;;;;;;6.33;6.33;;;;;28.57;32.14;101946.00;5032122;28;46189;-76
2023/04/05 08:49:43;;;;;;;;;7.00;7.00;;;;;28.61;32.05;101950.09;5031829;28;46173;-76
2023/04/05 08:52:08;;;;;;;;;8.33;8.00;;;;;28.63;32.04;101948.03;5031850;28;45384;-73
2023/04/05 08:54:34;;;;;;;;;8.33;8.33;;;;;28.66;32.26;101950.41;5027052;28;45393;-77
2023/04/05 08:57:04;;;;;;;;;5.00;5.00;;;;;28.69;32.30;101946.47;5020582;28;46935;-77
2023/04/05 08:59:33;;;;;;;;;8.00;7.67;;;;;28.69;32.09;101944.56;5030587;28;47042;-76
2023/04/05 09:02:01;;;;;;;;;5.33;5.33;;;;;28.71;31.89;101947.16;5029796;28;45523;-78
2023/04/05 09:04:30;;;;;;;;;7.00;7.00;;;;;28.71;32.56;101947.16;5029730;28;45542;-74
2023/04/05 09:06:58;;;;;;;;;7.33;7.33;;;;;28.71;31.76;101947.16;5029564;28;45680;-75
2023/04/05 09:09:24;;;;;;;;;9.33;9.00;;;;;28.71;32.60;101953.47;5032583;28;46244;-76
2023/04/05 09:11:50;;;;;;;;;4.00;4.00;;;;;28.73;31.79;101948.66;5016773;28;45435;-74
2023/04/05 09:14:16;;;;;;;;;6.00;6.00;;;;;28.71;31.62;101947.16;5040538;28;45513;-75
2023/04/05 09:16:42;;;;;;;;;7.00;7.00;;;;;28.78;32.21;101951.72;5032669;28;45361;-75
2023/04/05 09:19:09;;;;;;;;;7.33;5.67;;;;;28.82;31.57;101951.38;5026865;28;46179;-75
2023/04/05 09:21:56;;;;;;;;;6.00;6.00;;;;;28.86;32.15;101950.88;5030280;28;45365;-75
2023/04/05 09:24:29;;;;;;;;;4.00;4.00;;;;;28.85;31.78;101943.69;5031359;28;45404;-73
2023/04/05 09:27:03;;;;;;;;;6.33;6.33;;;;;28.92;31.62;101952.06;5031481;28;45679;-75
2023/04/05 09:29:29;;;;;;;;;7.33;6.00;;;;;28.95;32.03;101950.84;5027962;28;45519;-77
2023/04/05 09:31:55;;;;;;;;;8.00;6.00;;;;;28.96;31.45;101947.09;5020848;28;47095;-75
2023/04/05 09:34:21;;;;;;;;;5.67;5.00;;;;;29.03;32.07;101954.44;5025916;28;45737;-73
2023/04/05 09:36:46;;;;;;;;;6.00;6.00;;;;;29.03;31.50;101939.91;5031553;28;45595;-73
2023/04/05 09:39:11;;;;;;;;;6.00;4.67;;;;;29.06;31.38;101937.66;5026876;28;46191;-74
2023/04/05 09:41:38;;;;;;;;;7.00;7.00;;;;;29.03;31.37;101937.16;5021356;28;45571;-75
2023/04/05 09:44:03;;;;;;;;;6.33;6.33;;;;;29.02;31.41;101947.25;5017961;28;45578;-71
2023/04/05 09:46:40;;;;;;;;;6.00;6.00;;;;;28.95;30.93;101943.53;5024724;28;45496;-73
2023/04/05 09:49:08;;;;;;;;;7.67;7.00;;;;;28.85;31.25;101938.22;5028354;28;47204;-71
2023/04/05 09:51:35;;;;;;;;;5.00;5.00;;;;;28.77;30.92;101935.53;5029491;28;45491;-73
2023/04/05 09:54:09;;;;;;;;;7.67;7.67;;;;;28.67;30.89;101933.00;5027447;28;45431;-75
2023/04/05 09:56:39;;;;;;;;;7.00;7.00;;;;;28.61;31.33;101933.69;5030023;28;45393;-75
2023/04/05 09:59:10;;;;;;;;;10.33;8.33;;;;;28.53;31.20;101929.94;5030712;28;46168;-75
2023/04/05 10:01:36;;;;;;;;;8.67;8.67;;;;;28.46;30.59;101923.50;5021830;28;45423;-76
2023/04/05 10:04:02;;;;;;;;;7.00;7.00;;;;;28.41;31.11;101924.00;5034247;28;45611;-75
2023/04/05 10:06:33;;;;;;;;;8.33;8.33;;;;;28.36;30.40;101925.56;5034750;28;45518;-76
2023/04/05 10:08:59;;;;;;;;;7.00;7.00;;;;;28.32;30.43;101924.19;5033739;28;47243;-75
2023/04/05 10:11:25;;;;;;;;;8.33;7.33;;;;;28.27;31.00;101925.56;5035418;28;45419;-75
2023/04/05 10:13:50;;;;;;;;;7.67;7.33;;;;;28.18;31.07;101914.78;5033743;28;45459;-75
2023/04/05 10:16:20;;;;;;;;;6.00;6.00;;;;;28.18;30.81;101917.50;5046992;28;45642;-76
2023/04/05 10:18:50;;;;;;;;;8.00;6.33;;;;;28.18;30.83;101918.38;5030427;28;47222;-75
2023/04/05 10:21:22;;;;;;;;;5.00;5.00;;;;;28.13;30.39;101907.94;5035292;28;45418;-76
2023/04/05 10:24:18;;;;;;;;;6.67;6.67;;;;;28.14;30.72;101917.88;5034748;28;45566;-75
2023/04/05 10:27:07;;;;;;;;;3.67;3.67;;;;;28.12;30.79;101919.06;5012290;28;45513;-75
2023/04/05 10:29:59;;;;;;;;;7.33;7.00;;;;;28.07;30.65;101903.19;5011634;28;46345;-75
2023/04/05 10:32:45;;;;;;;;;7.50;6.00;;;;;28.09;30.31;101903.91;4996141;28;45564;-76
2023/04/05 10:35:13;;;;;;;;;8.33;6.00;;;;;28.08;30.72;101904.88;5011736;28;45580;-76
2023/04/05 10:38:06;;;;;;;;;5.67;5.67;;;;;28.07;30.75;101900.47;5012467;28;45606;-75
2023/04/05 10:40:32;;;;;;;;;6.00;6.00;;;;;28.06;30.62;101892.44;5012545;28;46044;-75
2023/04/05 10:42:58;;;;;;;;;6.33;6.33;;;;;28.03;30.28;101893.63;5009632;28;45566;-75
2023/04/05 10:45:24;;;;;;;;;5.00;5.00;;;;;28.05;30.12;101897.06;5012348;28;45537;-75
2023/04/05 10:48:05;;;;;;;;;5.00;5.00;;;;;28.01;30.42;101882.94;5012243;28;45593;-75
2023/04/05 10:50:31;;;;;;;;;7.00;6.67;;;;;28.04;30.55;101892.63;5013684;28;47323;-76
2023/04/05 10:52:59;;;;;;;;;4.67;4.00;;;;;28.04;30.01;101895.38;5015392;28;45478;-76
2023/04/05 10:55:25;;;;;;;;;5.67;5.67;;;;;28.02;30.35;101883.75;5016754;28;45472;-76
2023/04/05 10:57:53;;;;;;;;;7.00;5.00;;;;;27.99;30.08;101884.94;4995086;28;45689;-75
2023/04/05 11:00:19;;;;;;;;;5.00;5.00;;;;;28.00;30.40;101883.91;5004175;28;48509;-75
2023/04/05 11:02:47;;;;;;;;;5.33;5.33;;;;;27.99;30.03;101875.91;5012767;28;45468;-75
2023/04/05 11:05:33;;;;;;;;;5.33;4.00;;;;;28.00;30.48;101878.47;5028012;28;45510;-75
2023/04/05 11:08:08;;;;;;;;;8.33;6.00;;;;;28.01;29.85;101872.00;5031840;28;45377;-76
2023/04/05 11:10:38;;;;;;;;;11.00;7.33;;;;;28.01;29.93;101874.75;5028767;28;46073;-77
2023/04/05 11:13:07;;;;;;;;;5.00;5.00;;;;;28.02;29.74;101870.13;5023383;28;46380;-77
2023/04/05 11:15:33;;;;;;;;;7.00;5.00;;;;;28.03;30.16;101869.09;5031707;28;45423;-76
2023/04/05 11:18:17;;;;;;;;;2.00;2.00;;;;;28.04;29.80;101875.41;5036325;28;45464;-76
2023/04/05 11:20:46;;;;;;;;;5.33;4.00;;;;;28.05;29.95;101872.50;5022970;28;45429;-76
2023/04/05 11:23:17;;;;;;;;;3.67;3.67;;;;;28.08;29.66;101874.03;5021410;28;45381;-76
2023/04/05 11:26:02;;;;;;;;;4.00;4.00;;;;;28.09;29.79;101875.75;5032894;28;45527;-76
2023/04/05 11:28:30;;;;;;;;;4.67;4.67;;;;;28.09;29.49;101870.28;5033141;28;45516;-76
2023/04/05 11:30:57;;;;;;;;;5.00;5.00;;;;;28.11;30.23;101866.34;5034073;28;47224;-76
2023/04/05 11:33:41;;;;;;;;;3.67;3.67;;;;;28.12;29.51;101859.88;5033201;28;45755;-76
2023/04/05 11:36:06;;;;;;;;;6.67;5.00;;;;;28.13;30.29;101860.72;5031997;28;45599;-76
2023/04/05 11:38:32;;;;;;;;;6.00;5.00;;;;;28.17;29.83;101858.50;5030592;28;45561;-76
2023/04/05 11:41:17;;;;;;;;;7.67;5.33;;;;;28.19;29.42;101856.47;5026454;28;45411;-77
2023/04/05 11:43:46;;;;;;;;;7.00;5.67;;;;;28.20;30.09;101850.81;5028942;28;45490;-76
2023/04/05 11:46:15;;;;;;;;;6.00;5.00;;;;;28.12;29.31;101831.75;5025246;28;45449;-80
2023/04/05 11:48:43;;;;;;;;;5.00;5.00;;;;;28.23;29.52;101845.00;5033691;28;45525;-79
2023/04/05 11:51:09;;;;;;;;;5.67;5.33;;;;;28.25;29.31;101837.50;5017627;28;46393;-80
2023/04/05 11:53:35;;;;;;;;;6.33;4.33;;;;;28.27;29.76;101831.88;5017504;28;47209;-80
2023/04/05 11:56:11;;;;;;;;;4.00;4.00;;;;;28.31;29.56;101835.16;5034466;28;45368;-79
2023/04/05 11:58:37;;;;;;;;;5.67;3.67;;;;;28.31;29.58;101827.78;5030854;28;45411;-79
2023/04/05 12:01:05;;;;;;;;;4.67;4.67;;;;;28.36;29.83;101835.47;5031190;28;45828;-78
2023/04/05 12:03:30;;;;;;;;;6.00;5.67;;;;;28.37;29.72;101828.97;5019345;28;45419;-77
2023/04/05 12:05:58;;;;;;;;;4.33;4.33;;;;;28.40;29.65;101821.28;5025986;28;45484;-77
2023/04/05 12:08:37;;;;;;;;;5.33;5.00;;;;;28.44;30.00;101815.47;5032243;28;45579;-79
2023/04/05 12:11:06;;;;;;;;;5.00;5.00;;;;;28.51;30.06;101820.06;5024280;28;45503;-78
2023/04/05 12:13:32;;;;;;;;;4.67;4.33;;;;;28.54;30.23;101824.31;5031783;28;45423;-79
2023/04/05 12:16:00;;;;;;;;;5.00;5.00;;;;;28.54;29.29;101816.13;5025098;28;45440;-78
2023/04/05 12:18:27;;;;;;;;;5.00;4.67;;;;;28.60;29.63;101815.41;5033014;28;45340;-80
2023/04/05 12:20:53;;;;;;;;;5.00;5.00;;;;;28.60;29.59;101806.38;5024362;28;45519;-79
2023/04/05 12:23:20;;;;;;;;;4.00;3.67;;;;;28.64;29.82;101799.50;5036374;28;45541;-76
2023/04/05 12:25:47;;;;;;;;;7.00;5.67;;;;;28.70;29.53;101815.19;5032113;28;45572;-74
2023/04/05 12:28:12;;;;;;;;;4.67;4.67;;;;;28.71;29.81;101810.56;5027890;28;45780;-75
2023/04/05 12:30:56;;;;;;;;;4.00;4.00;;;;;28.71;29.48;101805.97;5029587;28;46993;-73
2023/04/05 12:33:30;;;;;;;;;6.67;6.00;;;;;28.79;29.84;101811.41;5020073;28;45680;-75
2023/04/05 12:35:56;;;;;;;;;6.33;6.33;;;;;28.81;29.10;101803.00;5032140;28;45477;-76
2023/04/05 12:38:28;;;;;;;;;9.00;9.00;;;;;28.84;28.76;101797.19;5032619;28;45428;-73
2023/04/05 12:40:59;;;;;;;;;7.00;7.00;;;;;28.83;29.05;101792.75;5033978;28;45524;-77
2023/04/05 12:43:24;;;;;;;;;3.33;3.33;;;;;28.85;29.30;101787.94;5032976;28;45440;-78
2023/04/05 12:45:54;;;;;;;;;6.00;4.67;;;;;28.89;29.32;101785.75;5020163;28;45750;-77
2023/04/05 12:48:22;;;;;;;;;7.67;7.67;;;;;28.89;29.06;101783.88;5033518;28;45779;-77
2023/04/05 12:50:50;;;;;;;;;5.00;5.00;;;;;28.93;28.46;101779.75;5033069;28;46312;-77
2023/04/05 12:53:21;;;;;;;;;3.00;3.00;;;;;28.98;28.68;101786.56;5022212;28;47215;-78
2023/04/05 12:55:54;;;;;;;;;4.67;4.33;;;;;29.00;29.26;101776.28;5027058;28;45661;-78
2023/04/05 12:58:21;;;;;;;;;4.00;3.00;;;;;28.97;28.64;101766.56;5031909;28;45559;-78
2023/04/05 13:00:46;;;;;;;;;3.33;3.33;;;;;29.01;28.32;101769.81;5029031;28;46026;-78
2023/04/05 13:03:19;;;;;;;;;3.00;2.67;;;;;29.04;29.11;101767.56;5023526;28;45499;-74
2023/04/05 13:05:48;;;;;;;;;3.00;3.00;;;;;29.02;28.96;101758.66;5019250;28;45469;-74
2023/04/05 13:08:14;;;;;;;;;5.00;4.00;;;;;29.08;28.59;101754.38;5024508;28;45635;-77
2023/04/05 13:10:40;;;;;;;;;5.33;4.33;;;;;29.14;28.72;101761.00;5030662;28;46987;-76
2023/04/05 13:13:05;;;;;;;;;3.00;2.00;;;;;29.19;28.42;101762.13;5019822;28;45731;-75
2023/04/05 13:15:31;;;;;;;;;4.00;4.00;;;;;29.25;28.69;101748.75;5030111;28;45804;-75
2023/04/05 13:17:56;;;;;;;;;3.00;3.00;;;;;29.30;28.98;101752.66;5029430;28;45606;-75
2023/04/05 13:20:21;;;;;;;;;5.00;3.67;;;;;29.38;28.76;101739.97;5033138;28;45342;-77
2023/04/05 13:22:47;;;;;;;;;3.67;3.00;;;;;29.43;29.14;101746.56;5026201;28;45425;-78
2023/04/05 13:25:13;;;;;;;;;4.00;4.00;;;;;29.50;28.48;101732.16;5028193;28;45424;-78
2023/04/05 13:27:39;;;;;;;;;2.67;2.67;;;;;29.55;29.21;101741.53;5038778;28;45407;-78
2023/04/05 13:30:05;;;;;;;;;5.33;5.33;;;;;29.58;29.02;101732.09;5030887;28;46137;-75
2023/04/05 13:32:32;;;;;;;;;4.33;4.00;;;;;29.66;28.88;101734.75;5026878;28;45372;-74
2023/04/05 13:34:57;;;;;;;;;5.33;3.00;;;;;29.70;28.85;101727.03;5043873;28;45522;-77
2023/04/05 13:37:22;;;;;;;;;4.00;3.00;;;;;29.73;29.37;101732.13;5028571;28;45619;-75
2023/04/05 13:39:48;;;;;;;;;5.00;5.00;;;;;29.78;29.20;101723.34;5035496;28;47008;-76
2023/04/05 13:42:14;;;;;;;;;4.00;4.00;;;;;29.81;29.02;101722.97;5034632;28;45389;-74
2023/04/05 13:44:39;;;;;;;;;4.00;3.00;;;;;29.84;28.78;101715.25;5035002;28;46012;-78
2023/04/05 13:47:04;;;;;;;;;2.00;2.00;;;;;29.88;29.04;101720.34;5032274;28;45380;-73
2023/04/05 13:49:30;;;;;;;;;4.33;3.00;;;;;29.90;29.02;101708.16;5034400;28;46018;-71
2023/04/05 13:51:55;;;;;;;;;4.00;3.00;;;;;29.95;29.36;101713.94;5035985;28;45750;-76
2023/04/05 13:54:20;;;;;;;;;3.67;3.67;;;;;29.98;29.21;101708.09;5035027;28;48006;-76
2023/04/05 13:56:46;;;;;;;;;3.00;3.00;;;;;30.03;28.81;101704.75;5036729;28;45340;-75
2023/04/05 13:59:15;;;;;;;;;2.00;2.00;;;;;30.08;28.94;101705.03;5019324;28;46128;-78
2023/04/05 14:01:45;;;;;;;;;3.67;3.67;;;;;30.06;29.04;101700.78;5029817;28;46784;-77
2023/04/05 14:04:10;;;;;;;;;4.33;4.00;;;;;29.93;28.65;101671.38;5022635;28;45487;-77
2023/04/05 14:06:36;;;;;;;;;4.00;4.00;;;;;29.95;28.50;101688.44;5028544;28;45368;-77
2023/04/05 14:09:01;;;;;;;;;4.33;4.33;;;;;29.88;28.74;101684.78;5035123;28;46122;-76
2023/04/05 14:11:27;;;;;;;;;5.33;4.33;;;;;29.83;28.54;101688.91;5025524;28;45639;-76
2023/04/05 14:13:52;;;;;;;;;6.00;5.33;;;;;29.69;28.57;101674.22;5036051;28;45500;-76
2023/04/05 14:16:17;;;;;;;;;6.00;4.33;;;;;29.66;28.09;101669.09;5031513;28;45364;-77
2023/04/05 14:18:43;;;;;;;;;5.67;5.67;;;;;29.64;28.64;101673.94;5035698;28;45475;-77
2023/04/05 14:21:09;;;;;;;;;5.00;5.00;;;;;29.59;28.17;101679.94;5034950;28;45566;-77
2023/04/05 14:23:35;;;;;;;;;5.00;5.00;;;;;29.57;28.60;101675.69;5021704;28;45674;-77
2023/04/05 14:26:00;;;;;;;;;3.67;3.67;;;;;29.53;28.29;101668.91;5025828;28;45681;-77
2023/04/05 14:28:25;;;;;;;;;5.00;5.00;;;;;29.46;28.57;101663.31;5033278;28;45474;-75
2023/04/05 14:30:51;;;;;;;;;5.67;5.67;;;;;29.42;28.05;101660.09;5033682;28;45491;-80
2023/04/05 14:33:16;;;;;;;;;4.00;4.00;;;;;29.44;28.22;101658.03;5034146;28;45445;-80
2023/04/05 14:35:43;;;;;;;;;6.67;5.33;;;;;29.48;27.84;101660.38;5031849;28;45929;-84
2023/04/05 14:38:09;;;;;;;;;7.00;5.00;;;;;29.48;28.26;101644.84;5034799;28;45430;-83
2023/04/05 14:40:34;;;;;;;;;4.67;4.67;;;;;29.51;27.98;101655.41;5033198;28;45325;-85
2023/04/05 14:43:00;;;;;;;;;5.00;5.00;;;;;29.51;28.04;101649.94;5034339;28;45502;-81
2023/04/05 14:45:28;;;;;;;;;7.33;6.00;;;;;29.54;27.84;101643.25;5027046;28;45523;-80
2023/04/05 14:47:54;;;;;;;;;5.00;5.00;;;;;29.53;28.22;101639.69;5027664;28;45471;-88
2023/04/05 14:50:19;;;;;;;;;4.67;4.67;;;;;29.54;27.93;101635.03;5028241;28;45666;-74
2023/04/05 14:52:45;;;;;;;;;6.00;5.67;;;;;29.56;28.08;101630.25;5032238;28;45580;-78
2023/04/05 14:55:15;;;;;;;;;6.00;4.00;;;;;29.52;27.92;101624.31;5029654;28;45722;-80
2023/04/05 14:57:40;;;;;;;;;5.00;5.00;;;;;29.55;27.79;101620.34;5019411;28;45782;-78
2023/04/05 15:00:07;;;;;;;;;4.33;4.00;;;;;29.50;28.00;101611.84;5040153;28;45385;-77
2023/04/05 15:02:34;;;;;;;;;3.67;3.67;;;;;29.52;27.29;101616.13;5037051;28;45518;-75
2023/04/05 15:05:00;;;;;;;;;4.33;4.33;;;;;29.50;27.72;101620.03;5043905;28;45614;-75
2023/04/05 15:07:26;;;;;;;;;4.00;4.00;;;;;29.48;27.56;101608.44;5034856;28;46192;-76
2023/04/05 15:09:51;;;;;;;;;4.67;3.00;;;;;29.49;27.49;101612.84;5023036;28;45448;-77
2023/04/05 15:12:17;;;;;;;;;4.00;4.00;;;;;29.48;27.43;101603.81;5033988;28;45466;-74
2023/04/05 15:14:44;;;;;;;;;2.33;2.33;;;;;29.46;27.48;101604.00;5033431;28;45449;-77
2023/04/05 15:17:10;;;;;;;;;3.33;3.33;;;;;29.45;27.24;101605.03;5020232;28;46151;-75
2023/04/05 15:19:36;;;;;;;;;3.33;3.33;;;;;29.41;26.98;101594.66;5026431;28;45732;-74
2023/04/05 15:22:01;;;;;;;;;8.00;6.00;;;;;29.40;27.20;101590.22;5038459;28;47174;-78
2023/04/05 15:24:27;;;;;;;;;4.00;4.00;;;;;29.40;27.56;101593.81;5046879;28;45394;-78
2023/04/05 15:26:52;;;;;;;;;4.33;4.33;;;;;29.36;27.07;101584.28;5035065;28;45577;-77
2023/04/05 15:29:18;;;;;;;;;3.33;3.33;;;;;29.37;27.26;101587.84;5032790;28;45765;-78
2023/04/05 15:31:43;;;;;;;;;3.33;3.33;;;;;29.32;27.40;101581.09;5037212;28;45954;-74
2023/04/05 15:34:08;;;;;;;;;5.00;4.00;;;;;29.34;27.02;101594.56;5028675;28;45595;-74
2023/04/05 15:36:34;;;;;;;;;3.00;3.00;;;;;29.30;27.28;101585.88;5033349;28;45422;-74
2023/04/05 15:39:00;;;;;;;;;5.67;5.67;;;;;29.29;27.00;101592.41;5036293;28;45623;-74
2023/04/05 15:41:25;;;;;;;;;3.33;3.33;;;;;29.21;27.18;101572.50;5026301;28;45372;-74
2023/04/05 15:43:51;;;;;;;;;3.00;3.00;;;;;29.26;27.48;101590.03;5032713;28;45851;-74
2023/04/05 15:46:16;;;;;;;;;5.00;5.00;;;;;29.24;27.09;101588.53;5038138;28;48246;-74
2023/04/05 15:48:42;;;;;;;;;3.00;3.00;;;;;29.19;26.90;101581.72;5025762;28;45500;-73
2023/04/05 15:51:08;;;;;;;;;3.33;3.33;;;;;29.19;27.39;101579.00;5021171;28;45484;-73
2023/04/05 15:53:34;;;;;;;;;3.67;3.67;;;;;29.14;27.56;101567.78;5027130;28;45528;-74
2023/04/05 15:55:59;;;;;;;;;6.33;5.00;;;;;29.07;26.81;101564.09;5033519;28;46099;-75
2023/04/05 15:58:25;;;;;;;;;3.67;3.67;;;;;29.05;26.85;101561.56;5032512;28;45671;-74
2023/04/05 16:00:50;;;;;;;;;6.33;2.33;;;;;29.08;26.51;101573.13;5033428;28;45943;-74
2023/04/05 16:03:15;;;;;;;;;2.33;2.33;;;;;29.10;27.11;101565.63;5027168;28;45529;-74
2023/04/05 16:05:41;;;;;;;;;3.00;3.00;;;;;29.11;26.84;101556.38;5024575;28;46109;-74
2023/04/05 16:08:06;;;;;;;;;4.67;3.00;;;;;29.22;26.78;101569.56;5027404;28;45432;-73
2023/04/05 16:10:32;;;;;;;;;3.33;2.67;;;;;29.27;27.14;101563.56;5032963;28;45427;-73
2023/04/05 16:12:57;;;;;;;;;2.00;2.00;;;;;29.29;26.69;101561.47;5031077;28;45516;-73
2023/04/05 16:15:23;;;;;;;;;4.33;4.33;;;;;29.36;27.04;101561.56;5023203;28;46174;-74
2023/04/05 16:17:48;;;;;;;;;3.00;3.00;;;;;29.37;26.93;101557.78;5020208;28;45464;-73
2023/04/05 16:20:14;;;;;;;;;2.00;2.00;;;;;29.40;26.80;101560.16;5036454;28;47025;-74
2023/04/05 16:22:40;;;;;;;;;5.00;4.00;;;;;29.40;27.24;101561.00;5034385;28;45428;-75
2023/04/05 16:25:05;;;;;;;;;3.00;3.00;;;;;29.43;27.32;101560.63;5032185;28;46304;-74
2023/04/05 16:27:32;;;;;;;;;4.00;1.33;;;;;29.45;27.43;101563.16;5028008;28;45391;-75
2023/04/05 16:29:57;;;;;;;;;2.00;2.00;;;;;29.43;27.06;101546.94;5029102;28;45562;-74
2023/04/05 16:32:23;;;;;;;;;3.33;2.33;;;;;29.47;26.88;101550.16;5026999;28;45488;-75
2023/04/05 16:34:48;;;;;;;;;2.00;2.00;;;;;29.49;27.42;101555.44;5020183;28;45400;-76
2023/04/05 16:37:13;;;;;;;;;2.67;2.67;;;;;29.50;27.49;101546.22;5027653;28;45378;-73
2023/04/05 16:39:39;;;;;;;;;2.33;2.33;;;;;29.51;26.96;101550.66;5024978;28;45178;-74